createdAt,value
2022-11-28T00:01:03.148Z,5.93
2022-11-28T00:03:29.577Z,7.97
2022-11-28T00:05:56.381Z,6.85
2022-11-28T00:08:22.921Z,6.20
2022-11-28T00:10:49.331Z,6.93
2022-11-28T00:13:15.719Z,7.65
2022-11-28T00:15:42.146Z,6.97
2022-11-28T00:18:08.596Z,6.43
2022-11-28T00:20:34.982Z,6.90
2022-11-28T00:23:01.354Z,7.80
2022-11-28T00:25:27.759Z,7.90
2022-11-28T00:27:54.138Z,8.15
2022-11-28T00:30:20.501Z,7.88
2022-11-28T00:32:46.895Z,7.65
2022-11-28T00:35:13.302Z,7.75
2022-11-28T00:37:39.679Z,7.18
2022-11-28T00:40:06.986Z,7.47
2022-11-28T00:42:33.363Z,7.93
2022-11-28T00:44:59.734Z,8.38
2022-11-28T00:47:26.135Z,7.80
2022-11-28T00:49:52.545Z,7.75
2022-11-28T00:52:19.355Z,7.13
2022-11-28T00:54:46.017Z,7.15
2022-11-28T00:57:12.505Z,6.95
2022-11-28T00:59:39.021Z,7.47
2022-11-28T01:02:05.530Z,8.07
2022-11-28T01:04:31.944Z,6.63
2022-11-28T01:06:58.542Z,6.85
2022-11-28T01:09:25.258Z,7.28
2022-11-28T01:11:53.261Z,7.85
2022-11-28T01:14:24.338Z,6.90
2022-11-28T01:19:17.388Z,6.70
2022-11-28T01:21:44.336Z,6.93
2022-11-28T01:24:10.917Z,7.38
2022-11-28T01:26:38.440Z,7.53
2022-11-28T01:29:04.983Z,7.70
2022-11-28T01:31:31.498Z,7.90
2022-11-28T01:33:58.830Z,7.90
2022-11-28T01:36:26.188Z,8.57
2022-11-28T01:38:53.000Z,8.23
2022-11-28T01:41:22.757Z,7.88
2022-11-28T01:44:00.376Z,7.38
2022-11-28T01:46:27.379Z,7.82
2022-11-28T01:48:57.187Z,8.23
2022-11-28T01:51:23.686Z,7.43
2022-11-28T01:53:50.202Z,7.60
2022-11-28T01:56:20.737Z,8.05
2022-11-28T01:58:50.470Z,8.10
2022-11-28T02:01:17.336Z,7.50
2022-11-28T02:03:46.163Z,8.60
2022-11-28T02:06:15.271Z,8.48
2022-11-28T02:08:41.694Z,6.60
2022-11-28T02:11:26.519Z,7.40
2022-11-28T02:14:34.254Z,6.35
2022-11-28T02:17:26.599Z,8.60
2022-11-28T02:20:22.279Z,7.60
2022-11-28T02:23:10.241Z,7.80
2022-11-28T02:25:42.688Z,8.20
2022-11-28T02:28:32.857Z,8.20
2022-11-28T02:31:24.351Z,8.60
2022-11-28T02:33:57.504Z,8.50
2022-11-28T02:36:38.168Z,8.45
2022-11-28T02:39:12.448Z,8.00
2022-11-28T02:42:02.757Z,8.30
2022-11-28T02:44:39.250Z,7.57
2022-11-28T02:47:10.435Z,9.23
2022-11-28T02:52:15.494Z,9.88
2022-11-28T02:54:42.969Z,9.82
2022-11-28T02:57:09.686Z,8.88
2022-11-28T02:59:39.882Z,8.35
2022-11-28T03:02:14.264Z,10.30
2022-11-28T03:05:12.837Z,9.18
2022-11-28T03:07:39.285Z,10.63
2022-11-28T03:10:18.580Z,9.98
2022-11-28T03:12:59.952Z,10.35
2022-11-28T03:16:06.711Z,8.70
2022-11-28T03:18:40.230Z,9.25
2022-11-28T03:21:22.710Z,7.82
2022-11-28T03:23:52.926Z,9.65
2022-11-28T03:26:28.779Z,9.53
2022-11-28T03:29:09.480Z,9.07
2022-11-28T03:31:42.733Z,8.93
2022-11-28T03:34:12.765Z,10.13
2022-11-28T03:36:50.076Z,11.02
2022-11-28T03:39:20.884Z,9.75
2022-11-28T03:41:55.123Z,11.57
2022-11-28T03:44:27.729Z,10.35
2022-11-28T03:46:55.806Z,11.40
2022-11-28T03:49:27.705Z,11.40
2022-11-28T03:52:07.068Z,10.77
2022-11-28T03:54:45.840Z,10.13
2022-11-28T03:57:23.301Z,10.38
2022-11-28T03:59:51.792Z,10.70
2022-11-28T04:02:33.550Z,9.25
2022-11-28T04:05:15.342Z,11.57
2022-11-28T04:07:47.724Z,10.82
2022-11-28T04:10:20.290Z,11.30
2022-11-28T04:12:54.329Z,9.18
2022-11-28T04:15:28.981Z,10.88
2022-11-28T04:18:05.496Z,11.10
2022-11-28T04:20:35.336Z,11.65
2022-11-28T04:23:06.740Z,11.65
2022-11-28T04:25:37.136Z,11.73
2022-11-28T04:28:07.455Z,10.63
2022-11-28T04:30:34.557Z,11.00
2022-11-28T04:33:03.755Z,11.45
2022-11-28T04:35:33.479Z,11.07
2022-11-28T04:38:01.467Z,11.63
2022-11-28T04:40:29.454Z,12.65
2022-11-28T04:43:00.560Z,10.98
2022-11-28T04:47:55.079Z,12.18
2022-11-28T04:50:23.961Z,12.43
2022-11-28T04:53:01.567Z,10.95
2022-11-28T04:55:39.406Z,10.93
2022-11-28T04:58:13.312Z,11.32
2022-11-28T05:00:40.573Z,7.90
2022-11-28T05:03:07.586Z,11.85
2022-11-28T05:05:46.143Z,12.30
2022-11-28T05:08:12.935Z,9.65
2022-11-28T05:10:39.665Z,11.45
2022-11-28T05:13:06.142Z,11.63
2022-11-28T05:15:32.537Z,10.60
2022-11-28T05:17:59.226Z,9.45
2022-11-28T05:20:26.052Z,11.55
2022-11-28T05:22:52.484Z,11.05
2022-11-28T05:25:18.997Z,10.68
2022-11-28T05:27:45.434Z,9.93
2022-11-28T05:30:12.630Z,13.13
2022-11-28T05:32:39.221Z,11.13
2022-11-28T05:35:05.731Z,12.48
2022-11-28T05:37:32.439Z,12.88
2022-11-28T05:39:58.890Z,11.35
2022-11-28T05:42:26.055Z,12.23
2022-11-28T05:44:52.679Z,11.65
2022-11-28T05:47:19.066Z,12.18
2022-11-28T05:49:47.816Z,12.15
2022-11-28T05:52:14.259Z,9.32
2022-11-28T05:54:40.662Z,12.25
2022-11-28T05:57:07.536Z,12.35
2022-11-28T05:59:34.089Z,11.95
2022-11-28T06:02:00.720Z,12.43
2022-11-28T06:04:27.249Z,13.00
2022-11-28T06:06:53.664Z,9.80
2022-11-28T06:09:24.542Z,12.30
2022-11-28T06:11:52.172Z,13.90
2022-11-28T06:14:18.570Z,11.88
2022-11-28T06:16:45.068Z,13.75
2022-11-28T06:19:12.603Z,13.38
2022-11-28T06:21:39.403Z,13.10
2022-11-28T06:24:06.431Z,12.73
2022-11-28T06:26:32.833Z,13.73
2022-11-28T06:28:59.235Z,13.77
2022-11-28T06:31:28.553Z,14.50
2022-11-28T06:33:55.264Z,13.57
2022-11-28T06:36:21.763Z,14.27
2022-11-28T06:38:48.410Z,10.68
2022-11-28T06:41:16.980Z,10.90
2022-11-28T06:43:43.665Z,13.32
2022-11-28T06:46:16.266Z,11.23
2022-11-28T06:48:43.683Z,13.73
2022-11-28T06:51:11.371Z,14.00
2022-11-28T06:53:37.764Z,11.20
2022-11-28T06:56:06.034Z,13.02
2022-11-28T06:58:32.854Z,13.10
2022-11-28T07:01:16.106Z,13.35
2022-11-28T07:03:43.696Z,13.32
2022-11-28T07:06:10.878Z,13.50
2022-11-28T07:08:37.610Z,11.32
2022-11-28T07:11:15.189Z,12.30
2022-11-28T07:13:42.227Z,13.38
2022-11-28T07:16:15.584Z,12.13
2022-11-28T07:18:42.216Z,12.73
2022-11-28T07:21:08.918Z,12.75
2022-11-28T07:23:35.449Z,13.80
2022-11-28T07:26:02.888Z,12.55
2022-11-28T07:28:30.190Z,13.70
2022-11-28T07:31:12.598Z,13.40
2022-11-28T07:33:43.462Z,12.77
2022-11-28T07:36:24.574Z,13.80
2022-11-28T07:41:22.499Z,11.65
2022-11-28T07:44:02.932Z,13.10
2022-11-28T07:46:30.923Z,12.95
2022-11-28T07:48:57.527Z,13.35
2022-11-28T07:51:26.690Z,13.07
2022-11-28T07:53:53.279Z,13.25
2022-11-28T07:56:22.831Z,12.02
2022-11-28T07:58:49.603Z,12.60
2022-11-28T08:01:19.074Z,10.90
2022-11-28T08:03:46.326Z,12.38
2022-11-28T08:06:14.546Z,11.57
2022-11-28T08:08:40.965Z,11.50
2022-11-28T08:11:08.557Z,10.88
2022-11-28T08:13:36.462Z,11.50
2022-11-28T08:16:13.133Z,10.52
2022-11-28T08:18:39.629Z,13.48
2022-11-28T08:21:08.460Z,10.93
2022-11-28T08:23:35.557Z,11.85
2022-11-28T08:26:02.990Z,12.52
2022-11-28T08:28:29.592Z,12.27
2022-11-28T08:30:56.280Z,12.45
2022-11-28T08:33:26.283Z,12.13
2022-11-28T08:35:53.052Z,13.27
2022-11-28T08:38:19.601Z,11.15
2022-11-28T08:40:46.114Z,13.18
2022-11-28T08:43:12.535Z,12.18
2022-11-28T08:45:39.348Z,11.75
2022-11-28T08:48:06.337Z,12.50
2022-11-28T08:50:32.735Z,12.48
2022-11-28T08:53:01.788Z,13.32
2022-11-28T08:55:39.158Z,11.93
2022-11-28T08:58:08.417Z,12.27
2022-11-28T09:00:34.867Z,12.00
2022-11-28T09:03:01.253Z,11.60
2022-11-28T09:05:28.811Z,11.93
2022-11-28T09:07:55.720Z,12.48
2022-11-28T09:10:22.861Z,12.60
2022-11-28T09:12:49.231Z,12.80
2022-11-28T09:15:15.598Z,13.07
2022-11-28T09:17:41.968Z,12.95
2022-11-28T09:20:08.680Z,11.63
2022-11-28T09:22:35.075Z,11.85
2022-11-28T09:25:01.500Z,11.88
2022-11-28T09:27:27.976Z,11.45
2022-11-28T09:29:54.359Z,11.35
2022-11-28T09:32:20.841Z,12.82
2022-11-28T09:34:47.332Z,11.88
2022-11-28T09:37:13.732Z,11.88
2022-11-28T09:40:04.808Z,12.40
2022-11-28T09:42:32.423Z,12.73
2022-11-28T09:45:02.977Z,11.13
2022-11-28T09:47:30.900Z,13.02
2022-11-28T09:50:15.306Z,13.82
2022-11-28T09:53:09.290Z,13.07
2022-11-28T09:55:35.632Z,13.93
2022-11-28T09:58:06.573Z,13.45
2022-11-28T10:00:36.884Z,14.10
2022-11-28T10:03:18.680Z,12.90
2022-11-28T10:05:54.291Z,14.80
2022-11-28T10:08:32.707Z,14.52
2022-11-28T10:11:05.484Z,13.88
2022-11-28T10:14:08.258Z,15.20
2022-11-28T10:17:05.543Z,15.65
2022-11-28T10:19:53.924Z,15.65
2022-11-28T10:22:34.087Z,18.90
2022-11-28T10:25:05.361Z,14.90
2022-11-28T10:27:35.491Z,14.30
2022-11-28T10:30:06.503Z,16.30
2022-11-28T10:35:20.880Z,15.57
2022-11-28T10:37:51.037Z,18.27
2022-11-28T10:40:49.858Z,16.05
2022-11-28T10:43:37.306Z,17.27
2022-11-28T10:46:30.156Z,16.58
2022-11-28T10:49:14.688Z,16.38
2022-11-28T10:51:47.105Z,19.00
2022-11-28T10:54:50.585Z,18.00
2022-11-28T10:57:20.292Z,17.20
2022-11-28T10:59:59.046Z,17.88
2022-11-28T11:02:55.402Z,19.75
2022-11-28T11:05:26.857Z,17.55
2022-11-28T11:08:05.451Z,17.38
2022-11-28T11:10:51.641Z,18.38
2022-11-28T11:13:26.832Z,17.05
2022-11-28T11:16:00.440Z,17.60
2022-11-28T11:18:28.449Z,19.33
2022-11-28T11:21:14.391Z,18.15
2022-11-28T11:23:40.808Z,18.98
2022-11-28T11:26:10.882Z,17.65
2022-11-28T11:28:45.483Z,19.92
2022-11-28T11:31:22.909Z,20.00
2022-11-28T11:34:00.950Z,19.60
2022-11-28T11:36:33.121Z,19.85
2022-11-28T11:39:11.873Z,19.10
2022-11-28T11:41:43.634Z,19.38
2022-11-28T11:44:20.367Z,19.33
2022-11-28T11:47:13.261Z,18.50
2022-11-28T11:49:44.152Z,19.38
2022-11-28T11:52:25.137Z,19.70
2022-11-28T11:54:54.544Z,20.48
2022-11-28T11:57:43.725Z,20.33
2022-11-28T12:00:15.640Z,19.67
2022-11-28T12:03:05.131Z,19.33
2022-11-28T12:05:59.313Z,18.40
2022-11-28T12:08:42.999Z,19.60
2022-11-28T12:11:22.048Z,18.90
2022-11-28T12:13:49.186Z,19.02
2022-11-28T12:16:34.008Z,18.58
2022-11-28T12:19:10.256Z,18.98
2022-11-28T12:22:12.095Z,18.02
2022-11-28T12:25:05.049Z,18.20
2022-11-28T12:27:39.882Z,19.45
2022-11-28T12:30:21.252Z,18.48
2022-11-28T12:32:56.842Z,16.95
2022-11-28T12:35:40.020Z,17.75
2022-11-28T12:39:03.642Z,17.80
2022-11-28T12:41:58.977Z,17.85
2022-11-28T12:45:00.448Z,19.00
2022-11-28T12:47:34.644Z,19.38
2022-11-28T12:50:19.948Z,18.85
2022-11-28T12:52:46.253Z,19.55
2022-11-28T12:55:34.299Z,19.33
2022-11-28T12:58:22.731Z,19.30
2022-11-28T13:01:32.945Z,18.90
2022-11-28T13:04:21.166Z,17.80
2022-11-28T13:07:24.355Z,17.90
2022-11-28T13:10:02.512Z,19.13
2022-11-28T13:13:08.393Z,19.90
2022-11-28T13:15:56.036Z,18.25
2022-11-28T13:18:54.454Z,18.48
2022-11-28T13:21:46.885Z,17.73
2022-11-28T13:24:33.185Z,18.08
2022-11-28T13:27:33.163Z,17.65
2022-11-28T13:30:24.951Z,18.20
2022-11-28T13:33:13.890Z,16.95
2022-11-28T13:35:42.744Z,17.98
2022-11-28T13:42:03.536Z,14.35
2022-11-28T13:44:24.346Z,17.55
2022-11-28T13:46:51.600Z,18.17
2022-11-28T13:49:23.997Z,15.65
2022-11-28T13:52:19.187Z,17.88
2022-11-28T13:54:53.076Z,18.20
2022-11-28T13:57:29.415Z,15.82
2022-11-28T14:00:27.737Z,17.23
2022-11-28T14:02:59.938Z,16.90
2022-11-28T14:05:36.158Z,17.65
2022-11-28T14:08:03.964Z,17.60
2022-11-28T14:11:07.351Z,15.32
2022-11-28T14:14:10.972Z,15.90
2022-11-28T14:16:51.573Z,18.77
2022-11-28T14:22:48.767Z,17.27
2022-11-28T14:25:36.867Z,16.58
2022-11-28T14:28:16.665Z,16.38
2022-11-28T14:30:44.839Z,18.20
2022-11-28T14:33:21.298Z,18.95
2022-11-28T14:35:50.726Z,17.27
2022-11-28T14:38:35.383Z,18.45
2022-11-28T14:41:04.598Z,19.90
2022-11-28T14:43:37.978Z,19.00
2022-11-28T14:46:19.141Z,21.17
2022-11-28T14:51:49.226Z,23.10
2022-11-28T14:54:32.371Z,22.13
2022-11-28T14:57:00.193Z,32.38
2022-11-28T14:59:45.329Z,28.23
2022-11-28T15:02:11.730Z,23.50
2022-11-28T15:05:03.025Z,21.77
2022-11-28T15:10:27.665Z,19.90
2022-11-28T15:13:22.037Z,20.70
2022-11-28T15:15:49.172Z,24.38
2022-11-28T15:18:18.012Z,20.40
2022-11-28T15:20:53.827Z,22.55
2022-11-28T15:23:30.196Z,21.85
2022-11-28T15:25:58.190Z,26.73
2022-11-28T15:28:28.240Z,26.75
2022-11-28T15:30:56.786Z,22.02
2022-11-28T15:33:24.388Z,29.30
2022-11-28T15:36:01.318Z,25.58
2022-11-28T15:38:29.765Z,29.50
2022-11-28T15:40:56.666Z,25.50
2022-11-28T15:43:24.012Z,22.85
2022-11-28T15:45:54.610Z,22.33
2022-11-28T15:48:28.935Z,21.73
2022-11-28T15:50:55.438Z,19.92
2022-11-28T15:53:21.998Z,20.98
2022-11-28T15:56:07.020Z,19.67
2022-11-28T15:58:33.652Z,22.50
2022-11-28T16:01:19.636Z,22.63
2022-11-28T16:03:55.315Z,21.40
2022-11-28T16:06:23.547Z,23.05
2022-11-28T16:08:54.095Z,21.30
2022-11-28T16:11:23.168Z,23.75
2022-11-28T16:13:50.703Z,21.27
2022-11-28T16:16:21.341Z,20.38
2022-11-28T16:19:08.384Z,20.52
2022-11-28T16:21:46.184Z,22.77
2022-11-28T16:24:38.828Z,21.10
2022-11-28T16:27:06.051Z,21.33
2022-11-28T16:29:40.633Z,20.67
2022-11-28T16:32:26.029Z,19.88
2022-11-28T16:34:54.161Z,21.55
2022-11-28T16:37:23.680Z,19.10
2022-11-28T16:40:20.323Z,19.67
2022-11-28T16:42:54.419Z,19.98
2022-11-28T16:45:25.408Z,20.27
2022-11-28T16:50:23.143Z,21.40
2022-11-28T16:52:57.687Z,28.95
2022-11-28T16:55:27.051Z,23.23
2022-11-28T16:57:57.169Z,25.58
2022-11-28T17:00:23.769Z,18.07
2022-11-28T17:02:53.418Z,20.58
2022-11-28T17:05:20.304Z,20.80
2022-11-28T17:07:46.768Z,22.92
2022-11-28T17:10:13.775Z,20.58
2022-11-28T17:12:40.522Z,23.33
2022-11-28T17:15:09.836Z,21.25
2022-11-28T17:17:36.454Z,20.67
2022-11-28T17:20:03.580Z,22.73
2022-11-28T17:22:40.689Z,24.13
2022-11-28T17:25:13.921Z,26.45
2022-11-28T17:27:40.370Z,31.65
2022-11-28T17:30:07.489Z,25.55
2022-11-28T17:32:33.915Z,28.15
2022-11-28T17:35:03.845Z,24.27
2022-11-28T17:37:30.245Z,24.58
2022-11-28T17:40:15.220Z,25.90
2022-11-28T17:42:41.659Z,25.75
2022-11-28T17:45:13.847Z,26.17
2022-11-28T17:47:40.251Z,23.80
2022-11-28T17:50:07.250Z,25.98
2022-11-28T17:52:33.634Z,26.60
2022-11-28T17:55:06.856Z,23.13
2022-11-28T17:57:33.961Z,24.38
2022-11-28T18:00:00.649Z,30.50
2022-11-28T18:02:27.512Z,26.05
2022-11-28T18:04:53.956Z,25.30
2022-11-28T18:07:20.384Z,22.02
2022-11-28T18:09:47.839Z,25.42
2022-11-28T18:12:14.247Z,32.10
2022-11-28T18:14:40.634Z,34.95
2022-11-28T18:17:07.610Z,25.63
2022-11-28T18:19:34.584Z,30.63
2022-11-28T18:22:00.962Z,31.95
2022-11-28T18:24:27.375Z,25.80
2022-11-28T18:26:53.764Z,28.65
2022-11-28T18:29:20.214Z,31.90
2022-11-28T18:31:46.739Z,31.92
2022-11-28T18:34:13.125Z,29.42
2022-11-28T18:36:40.748Z,33.90
2022-11-28T18:39:09.378Z,31.67
2022-11-28T18:41:36.015Z,27.02
2022-11-28T18:44:04.614Z,29.20
2022-11-28T18:46:32.238Z,27.98
2022-11-28T18:48:59.296Z,28.48
2022-11-28T18:51:31.248Z,26.85
2022-11-28T18:53:57.942Z,29.85
2022-11-28T18:56:25.440Z,29.20
2022-11-28T18:58:53.377Z,28.90
2022-11-28T19:01:22.763Z,26.05
2022-11-28T19:03:50.919Z,27.60
2022-11-28T19:06:17.351Z,29.92
2022-11-28T19:08:43.900Z,29.20
2022-11-28T19:11:15.342Z,34.55
2022-11-28T19:13:43.761Z,30.83
2022-11-28T19:16:14.122Z,30.05
2022-11-28T19:18:40.699Z,31.00
2022-11-28T19:21:09.072Z,28.33
2022-11-28T19:23:35.711Z,27.20
2022-11-28T19:26:12.439Z,28.50
2022-11-28T19:28:40.772Z,31.23
2022-11-28T19:31:21.304Z,31.45
2022-11-28T19:34:01.353Z,32.33
2022-11-28T19:36:29.640Z,32.47
2022-11-28T19:38:56.077Z,31.45
2022-11-28T19:41:22.648Z,32.83
2022-11-28T19:43:49.223Z,33.33
2022-11-28T19:46:15.771Z,32.97
2022-11-28T19:48:42.636Z,31.58
2022-11-28T19:51:10.173Z,34.50
2022-11-28T19:53:37.972Z,36.35
2022-11-28T19:56:10.360Z,34.08
2022-11-28T19:58:37.504Z,35.28
2022-11-28T20:01:09.033Z,35.65
2022-11-28T20:03:36.555Z,39.03
2022-11-28T20:06:15.999Z,34.63
2022-11-28T20:08:42.936Z,34.20
2022-11-28T20:11:14.845Z,36.05
2022-11-28T20:13:42.104Z,31.88
2022-11-28T20:16:09.967Z,35.70
2022-11-28T20:18:37.917Z,36.33
2022-11-28T20:21:11.303Z,36.45
2022-11-28T20:23:42.439Z,36.45
2022-11-28T20:26:09.385Z,35.00
2022-11-28T20:28:37.986Z,36.35
2022-11-28T20:31:06.119Z,33.92
2022-11-28T20:33:32.816Z,35.15
2022-11-28T20:36:10.923Z,35.22
2022-11-28T20:38:37.367Z,33.28
2022-11-28T20:41:05.689Z,34.70
2022-11-28T20:43:33.424Z,36.17
2022-11-28T20:46:07.525Z,37.20
2022-11-28T20:48:34.586Z,37.50
2022-11-28T20:51:00.968Z,37.55
2022-11-28T20:53:27.459Z,34.78
2022-11-28T20:56:06.901Z,35.25
2022-11-28T20:58:33.674Z,33.15
2022-11-28T21:01:00.411Z,33.70
2022-11-28T21:03:27.295Z,36.90
2022-11-28T21:05:59.414Z,35.80
2022-11-28T21:08:30.236Z,38.08
2022-11-28T21:10:56.708Z,33.95
2022-11-28T21:13:23.105Z,33.42
2022-11-28T21:15:49.728Z,30.83
2022-11-28T21:18:16.571Z,33.90
2022-11-28T21:20:45.314Z,31.73
2022-11-28T21:23:13.286Z,30.40
2022-11-28T21:25:41.200Z,35.13
2022-11-28T21:28:09.402Z,34.20
2022-11-28T21:30:44.088Z,33.55
2022-11-28T21:33:11.551Z,31.50
2022-11-28T21:35:38.793Z,32.88
2022-11-28T21:38:05.895Z,30.77
2022-11-28T21:40:32.784Z,31.13
2022-11-28T21:42:59.217Z,32.38
2022-11-28T21:45:25.765Z,32.08
2022-11-28T21:47:52.397Z,31.48
2022-11-28T21:50:18.834Z,29.60
2022-11-28T21:52:45.265Z,30.83
2022-11-28T21:55:11.696Z,27.85
2022-11-28T21:57:38.324Z,28.38
2022-11-28T22:00:06.159Z,27.98
2022-11-28T22:02:32.739Z,27.00
2022-11-28T22:04:59.916Z,30.23
2022-11-28T22:07:26.348Z,27.63
2022-11-28T22:09:52.767Z,28.60
2022-11-28T22:12:19.164Z,29.50
2022-11-28T22:14:46.138Z,30.02
2022-11-28T22:17:12.798Z,30.73
2022-11-28T22:19:39.183Z,31.40
2022-11-28T22:22:05.615Z,30.05
2022-11-28T22:24:32.069Z,31.80
2022-11-28T22:26:59.772Z,32.08
2022-11-28T22:29:26.380Z,31.98
2022-11-28T22:31:52.795Z,33.45
2022-11-28T22:34:19.375Z,33.30
2022-11-28T22:36:45.770Z,32.75
2022-11-28T22:39:12.203Z,34.67
2022-11-28T22:41:38.869Z,33.67
2022-11-28T22:44:05.581Z,36.38
2022-11-28T22:46:32.422Z,35.20
2022-11-28T22:49:00.085Z,36.63
2022-11-28T22:51:27.462Z,35.08
2022-11-28T22:53:55.024Z,37.10
2022-11-28T22:56:21.653Z,39.20
2022-11-28T22:58:48.635Z,40.20
2022-11-28T23:01:17.787Z,39.70
2022-11-28T23:03:44.821Z,40.15
2022-11-28T23:06:18.379Z,39.90
2022-11-28T23:08:45.594Z,41.70
2022-11-28T23:11:17.483Z,41.00
2022-11-28T23:13:44.534Z,40.28
2022-11-28T23:16:19.036Z,40.40
2022-11-28T23:18:47.206Z,43.88
2022-11-28T23:21:14.119Z,43.42
2022-11-28T23:23:41.058Z,43.75
2022-11-28T23:26:13.849Z,44.13
2022-11-28T23:28:40.851Z,45.67
2022-11-28T23:31:10.215Z,45.83
2022-11-28T23:33:38.006Z,44.13
2022-11-28T23:36:12.877Z,45.92
2022-11-28T23:38:39.270Z,44.47
2022-11-28T23:41:05.651Z,43.10
2022-11-28T23:43:32.427Z,41.35
2022-11-28T23:45:58.889Z,39.75
2022-11-28T23:48:26.137Z,43.28
2022-11-28T23:50:52.533Z,40.70
2022-11-28T23:53:18.938Z,37.80
2022-11-28T23:55:45.327Z,39.30
2022-11-28T23:58:11.789Z,39.47
